Burlington, IA

7:52 PM CST on January 30, 2015 (GMT -0600)
IADOT Burlington (US 34) | Change Station
CLOSE
Current Station
Personal Weather Station
Location: Burlington, IA
Elevation: 715 ft
Nearby Weather Stations
Active Advisory: Winter Storm Watch

Elev 715 ft 40.81 °N, 91.10 °W | Updated 32 minutes ago

Clear
Clear
30 °F
Feels Like 26 °F
N
4
Wind Variable Wind from SSW
Gusts 5.0 mph

Today
High -- | Low -- °F
--% Chance of Precip.
Yesterday
High -- | Low -- °F
Precip. -- in
7:16 AM 5:19 PM
Waxing Gibbous, 86% visible
Pressure 30.44 in
Visibility 10.0 miles
Clouds Clear
Windchill 26 °F
Dew Point 21 °F
Humidity 67%
Rainfall -999.00 in
Snow Depth Not available.
UV 0 out of 12
Pollen .10 out of 12
Air Quality Not available.
Flu Activity Not available.
METAR KBRL 310053Z AUTO 19005KT 10SM CLR M03/M08 A3040 RMK AO2 SLP306 T10281078

More Conditions Fewer Conditions

Pressure 30.44 in
Visibility 10.0 miles
Clouds Clear
Windchill 26 °F
Dew Point 21 °F
Humidity 67%
Rainfall -999.00 in
Snow Depth Not available.
UV 0 out of 12
Pollen .10 out of 12
Air Quality Not available.
Flu Activity Not available.
METAR KBRL 310053Z AUTO 19005KT 10SM CLR M03/M08 A3040 RMK AO2 SLP306 T10281078

More Conditions Fewer Conditions

10-Day Weather Forecast

Almanac

Astronomy

Jan. 30, 2015 Rise Set
Actual Time
Civil Twilight
Nautical Twilight
Astronomical Twilight
Moon
Length of Visible Light
Length of Day
Tomorrow will be .
, % of the Moon is Illuminated

Today's Extremes

State Highs State Lows

Community

WunderPhotos

Upload Photos

1,791,964 photos uploaded!

WunderBlogs® & News

Nearby

Air Quality

  Air Quality AQ Index Pollutant
Not available.

Snow Depth

Station Depth Elevation

Earthquake Activity

City Distance Mag. Time & Date
Minimum magnitude displayed is 2.5.

Coastal Water Temperatures

Place Temperature

Nearby Weather Stations